sensor_id;sensor_type;location;lat;lon;timestamp;P1;durP1;ratioP1;P2;durP2;ratioP2
13832;SDS011;6987;19.472;-99.276;2023-07-31T00:00:35;1.60;;;1.50;;
13832;SDS011;6987;19.472;-99.276;2023-07-31T00:04:19;2.00;;;1.90;;
13832;SDS011;6987;19.472;-99.276;2023-07-31T00:06:48;1.50;;;1.50;;
13832;SDS011;6987;19.472;-99.276;2023-07-31T00:09:17;2.08;;;1.70;;
13832;SDS011;6987;19.472;-99.276;2023-07-31T00:11:46;1.80;;;1.70;;
13832;SDS011;6987;19.472;-99.276;2023-07-31T00:14:15;2.15;;;1.40;;
13832;SDS011;6987;19.472;-99.276;2023-07-31T00:16:44;1.83;;;1.65;;
13832;SDS011;6987;19.472;-99.276;2023-07-31T00:19:13;1.70;;;1.60;;
13832;SDS011;6987;19.472;-99.276;2023-07-31T00:21:44;1.90;;;1.80;;
13832;SDS011;6987;19.472;-99.276;2023-07-31T00:24:13;5.68;;;1.70;;
13832;SDS011;6987;19.472;-99.276;2023-07-31T00:26:42;1.90;;;1.80;;
13832;SDS011;6987;19.472;-99.276;2023-07-31T00:29:10;1.83;;;1.73;;
13832;SDS011;6987;19.472;-99.276;2023-07-31T00:31:39;1.67;;;1.58;;
13832;SDS011;6987;19.472;-99.276;2023-07-31T00:34:08;6.05;;;1.70;;
13832;SDS011;6987;19.472;-99.276;2023-07-31T00:36:37;1.70;;;1.60;;
13832;SDS011;6987;19.472;-99.276;2023-07-31T00:39:08;1.73;;;1.63;;
13832;SDS011;6987;19.472;-99.276;2023-07-31T00:41:37;2.13;;;2.00;;
13832;SDS011;6987;19.472;-99.276;2023-07-31T00:44:06;2.33;;;2.13;;
13832;SDS011;6987;19.472;-99.276;2023-07-31T00:46:35;2.05;;;1.90;;
13832;SDS011;6987;19.472;-99.276;2023-07-31T00:49:04;2.20;;;2.10;;
13832;SDS011;6987;19.472;-99.276;2023-07-31T00:51:34;2.03;;;1.92;;
13832;SDS011;6987;19.472;-99.276;2023-07-31T00:54:03;2.10;;;2.00;;
13832;SDS011;6987;19.472;-99.276;2023-07-31T00:56:34;2.58;;;2.33;;
13832;SDS011;6987;19.472;-99.276;2023-07-31T00:59:02;3.53;;;2.75;;
13832;SDS011;6987;19.472;-99.276;2023-07-31T01:01:31;2.22;;;2.13;;
13832;SDS011;6987;19.472;-99.276;2023-07-31T01:04:00;2.25;;;2.13;;
13832;SDS011;6987;19.472;-99.276;2023-07-31T01:06:30;2.58;;;2.38;;
13832;SDS011;6987;19.472;-99.276;2023-07-31T01:09:03;2.30;;;2.20;;
13832;SDS011;6987;19.472;-99.276;2023-07-31T01:11:34;2.03;;;1.92;;
13832;SDS011;6987;19.472;-99.276;2023-07-31T01:14:07;2.67;;;2.33;;
13832;SDS011;6987;19.472;-99.276;2023-07-31T01:16:36;2.55;;;2.40;;
13832;SDS011;6987;19.472;-99.276;2023-07-31T01:19:05;2.47;;;2.28;;
13832;SDS011;6987;19.472;-99.276;2023-07-31T01:21:43;2.83;;;2.40;;
13832;SDS011;6987;19.472;-99.276;2023-07-31T01:24:23;2.58;;;2.28;;
13832;SDS011;6987;19.472;-99.276;2023-07-31T01:26:56;2.60;;;2.50;;
13832;SDS011;6987;19.472;-99.276;2023-07-31T01:29:27;3.17;;;2.40;;
13832;SDS011;6987;19.472;-99.276;2023-07-31T01:31:58;2.65;;;2.47;;
13832;SDS011;6987;19.472;-99.276;2023-07-31T01:34:28;1.83;;;1.80;;
13832;SDS011;6987;19.472;-99.276;2023-07-31T01:36:57;2.13;;;2.03;;
13832;SDS011;6987;19.472;-99.276;2023-07-31T01:39:26;2.58;;;2.03;;
13832;SDS011;6987;19.472;-99.276;2023-07-31T01:41:57;1.80;;;1.70;;
13832;SDS011;6987;19.472;-99.276;2023-07-31T01:44:26;2.35;;;1.70;;
13832;SDS011;6987;19.472;-99.276;2023-07-31T01:46:55;2.45;;;1.90;;
13832;SDS011;6987;19.472;-99.276;2023-07-31T01:49:25;2.55;;;2.35;;
13832;SDS011;6987;19.472;-99.276;2023-07-31T01:51:54;2.60;;;2.40;;
13832;SDS011;6987;19.472;-99.276;2023-07-31T01:54:23;2.40;;;2.22;;
13832;SDS011;6987;19.472;-99.276;2023-07-31T01:56:52;2.42;;;2.33;;
13832;SDS011;6987;19.472;-99.276;2023-07-31T01:59:23;2.88;;;2.20;;
13832;SDS011;6987;19.472;-99.276;2023-07-31T02:01:52;2.38;;;2.20;;
13832;SDS011;6987;19.472;-99.276;2023-07-31T02:04:21;2.58;;;2.35;;
13832;SDS011;6987;19.472;-99.276;2023-07-31T02:06:50;2.63;;;2.53;;
13832;SDS011;6987;19.472;-99.276;2023-07-31T02:09:19;2.97;;;2.80;;
13832;SDS011;6987;19.472;-99.276;2023-07-31T02:11:48;4.30;;;4.00;;
13832;SDS011;6987;19.472;-99.276;2023-07-31T02:14:17;5.35;;;4.85;;
13832;SDS011;6987;19.472;-99.276;2023-07-31T02:16:48;5.70;;;5.30;;
13832;SDS011;6987;19.472;-99.276;2023-07-31T02:19:17;4.93;;;4.47;;
13832;SDS011;6987;19.472;-99.276;2023-07-31T02:21:46;5.05;;;4.65;;
13832;SDS011;6987;19.472;-99.276;2023-07-31T02:24:15;5.05;;;4.75;;
13832;SDS011;6987;19.472;-99.276;2023-07-31T02:26:44;5.05;;;4.65;;
13832;SDS011;6987;19.472;-99.276;2023-07-31T02:29:13;5.50;;;5.13;;
13832;SDS011;6987;19.472;-99.276;2023-07-31T02:31:42;6.22;;;5.60;;
13832;SDS011;6987;19.472;-99.276;2023-07-31T02:34:13;5.10;;;4.75;;
13832;SDS011;6987;19.472;-99.276;2023-07-31T02:36:42;5.95;;;5.45;;
13832;SDS011;6987;19.472;-99.276;2023-07-31T02:39:11;5.00;;;4.60;;
13832;SDS011;6987;19.472;-99.276;2023-07-31T02:41:39;9.32;;;4.90;;
13832;SDS011;6987;19.472;-99.276;2023-07-31T02:44:08;4.93;;;4.63;;
13832;SDS011;6987;19.472;-99.276;2023-07-31T02:46:40;4.18;;;3.97;;
13832;SDS011;6987;19.472;-99.276;2023-07-31T02:49:08;4.20;;;3.95;;
13832;SDS011;6987;19.472;-99.276;2023-07-31T02:51:39;3.88;;;3.67;;
13832;SDS011;6987;19.472;-99.276;2023-07-31T02:54:08;3.63;;;3.33;;
13832;SDS011;6987;19.472;-99.276;2023-07-31T02:56:37;3.05;;;2.85;;
13832;SDS011;6987;19.472;-99.276;2023-07-31T02:59:06;2.90;;;2.70;;
13832;SDS011;6987;19.472;-99.276;2023-07-31T03:01:35;2.80;;;2.60;;
13832;SDS011;6987;19.472;-99.276;2023-07-31T03:04:04;2.90;;;2.80;;
13832;SDS011;6987;19.472;-99.276;2023-07-31T03:06:33;2.92;;;2.72;;
13832;SDS011;6987;19.472;-99.276;2023-07-31T03:09:03;2.80;;;2.70;;
13832;SDS011;6987;19.472;-99.276;2023-07-31T03:11:32;2.67;;;2.45;;
13832;SDS011;6987;19.472;-99.276;2023-07-31T03:14:01;3.00;;;2.40;;
13832;SDS011;6987;19.472;-99.276;2023-07-31T03:16:30;2.65;;;2.55;;
13832;SDS011;6987;19.472;-99.276;2023-07-31T03:18:59;3.90;;;2.33;;
13832;SDS011;6987;19.472;-99.276;2023-07-31T03:21:28;2.63;;;2.42;;
13832;SDS011;6987;19.472;-99.276;2023-07-31T03:23:58;3.35;;;2.60;;
13832;SDS011;6987;19.472;-99.276;2023-07-31T03:26:30;2.50;;;2.40;;
13832;SDS011;6987;19.472;-99.276;2023-07-31T03:28:59;2.58;;;2.47;;
13832;SDS011;6987;19.472;-99.276;2023-07-31T03:31:28;2.47;;;2.35;;
13832;SDS011;6987;19.472;-99.276;2023-07-31T03:33:57;2.75;;;2.28;;
13832;SDS011;6987;19.472;-99.276;2023-07-31T03:36:26;1.98;;;1.88;;
13832;SDS011;6987;19.472;-99.276;2023-07-31T03:38:55;2.05;;;1.95;;
13832;SDS011;6987;19.472;-99.276;2023-07-31T03:41:24;2.00;;;1.90;;
13832;SDS011;6987;19.472;-99.276;2023-07-31T03:43:55;2.08;;;1.83;;
13832;SDS011;6987;19.472;-99.276;2023-07-31T03:46:24;1.50;;;1.50;;
13832;SDS011;6987;19.472;-99.276;2023-07-31T03:48:54;1.63;;;1.63;;
13832;SDS011;6987;19.472;-99.276;2023-07-31T03:51:23;1.73;;;1.63;;
13832;SDS011;6987;19.472;-99.276;2023-07-31T03:53:52;4.85;;;2.08;;
13832;SDS011;6987;19.472;-99.276;2023-07-31T03:56:21;1.38;;;1.38;;
13832;SDS011;6987;19.472;-99.276;2023-07-31T03:58:50;1.45;;;1.40;;
13832;SDS011;6987;19.472;-99.276;2023-07-31T04:01:21;1.50;;;1.38;;
13832;SDS011;6987;19.472;-99.276;2023-07-31T04:03:50;1.70;;;1.60;;
13832;SDS011;6987;19.472;-99.276;2023-07-31T04:06:19;1.80;;;1.70;;
13832;SDS011;6987;19.472;-99.276;2023-07-31T04:08:48;1.88;;;1.58;;
13832;SDS011;6987;19.472;-99.276;2023-07-31T04:11:18;1.52;;;1.42;;
13832;SDS011;6987;19.472;-99.276;2023-07-31T04:13:48;1.75;;;1.65;;
13832;SDS011;6987;19.472;-99.276;2023-07-31T04:16:17;1.20;;;1.20;;
13832;SDS011;6987;19.472;-99.276;2023-07-31T04:18:47;0.90;;;0.90;;
13832;SDS011;6987;19.472;-99.276;2023-07-31T04:21:16;1.20;;;1.17;;
13832;SDS011;6987;19.472;-99.276;2023-07-31T04:23:46;1.30;;;1.20;;
13832;SDS011;6987;19.472;-99.276;2023-07-31T04:26:15;1.27;;;1.25;;
13832;SDS011;6987;19.472;-99.276;2023-07-31T04:28:44;1.00;;;0.98;;
13832;SDS011;6987;19.472;-99.276;2023-07-31T04:31:13;1.02;;;1.02;;
13832;SDS011;6987;19.472;-99.276;2023-07-31T04:33:41;0.73;;;0.73;;
13832;SDS011;6987;19.472;-99.276;2023-07-31T04:36:13;1.20;;;1.10;;
13832;SDS011;6987;19.472;-99.276;2023-07-31T04:38:41;1.17;;;1.17;;
13832;SDS011;6987;19.472;-99.276;2023-07-31T04:41:10;0.80;;;0.80;;
13832;SDS011;6987;19.472;-99.276;2023-07-31T04:43:39;0.88;;;0.88;;
13832;SDS011;6987;19.472;-99.276;2023-07-31T04:46:08;2.00;;;0.82;;
13832;SDS011;6987;19.472;-99.276;2023-07-31T04:48:37;0.90;;;0.90;;
13832;SDS011;6987;19.472;-99.276;2023-07-31T04:51:06;0.98;;;0.98;;
13832;SDS011;6987;19.472;-99.276;2023-07-31T04:53:37;1.23;;;1.02;;
13832;SDS011;6987;19.472;-99.276;2023-07-31T04:56:07;0.90;;;0.90;;
13832;SDS011;6987;19.472;-99.276;2023-07-31T04:58:36;1.17;;;1.15;;
13832;SDS011;6987;19.472;-99.276;2023-07-31T05:01:05;4.03;;;0.90;;
13832;SDS011;6987;19.472;-99.276;2023-07-31T05:03:34;1.15;;;1.00;;
13832;SDS011;6987;19.472;-99.276;2023-07-31T05:06:03;1.27;;;1.02;;
13832;SDS011;6987;19.472;-99.276;2023-07-31T05:08:31;0.65;;;0.65;;
13832;SDS011;6987;19.472;-99.276;2023-07-31T05:11:02;1.13;;;1.00;;
13832;SDS011;6987;19.472;-99.276;2023-07-31T05:13:31;0.90;;;0.90;;
13832;SDS011;6987;19.472;-99.276;2023-07-31T05:16:00;0.98;;;0.98;;
13832;SDS011;6987;19.472;-99.276;2023-07-31T05:18:30;0.98;;;0.90;;
13832;SDS011;6987;19.472;-99.276;2023-07-31T05:20:59;2.30;;;1.05;;
13832;SDS011;6987;19.472;-99.276;2023-07-31T05:23:28;0.90;;;0.90;;
13832;SDS011;6987;19.472;-99.276;2023-07-31T05:26:05;0.82;;;0.82;;
13832;SDS011;6987;19.472;-99.276;2023-07-31T05:28:35;0.63;;;0.60;;
13832;SDS011;6987;19.472;-99.276;2023-07-31T05:31:04;0.90;;;0.90;;
13832;SDS011;6987;19.472;-99.276;2023-07-31T05:33:33;0.70;;;0.70;;
13832;SDS011;6987;19.472;-99.276;2023-07-31T05:36:03;0.77;;;0.77;;
13832;SDS011;6987;19.472;-99.276;2023-07-31T05:38:32;1.35;;;0.85;;
13832;SDS011;6987;19.472;-99.276;2023-07-31T05:41:01;0.50;;;0.50;;
13832;SDS011;6987;19.472;-99.276;2023-07-31T05:43:32;1.38;;;0.68;;
13832;SDS011;6987;19.472;-99.276;2023-07-31T05:46:01;0.60;;;0.60;;
13832;SDS011;6987;19.472;-99.276;2023-07-31T05:48:30;0.80;;;0.80;;
13832;SDS011;6987;19.472;-99.276;2023-07-31T05:50:59;3.53;;;0.60;;
13832;SDS011;6987;19.472;-99.276;2023-07-31T05:53:28;0.50;;;0.50;;
13832;SDS011;6987;19.472;-99.276;2023-07-31T05:55:57;0.77;;;0.60;;
13832;SDS011;6987;19.472;-99.276;2023-07-31T05:58:26;0.73;;;0.73;;
13832;SDS011;6987;19.472;-99.276;2023-07-31T06:00:57;0.50;;;0.50;;
13832;SDS011;6987;19.472;-99.276;2023-07-31T06:03:26;0.77;;;0.65;;
13832;SDS011;6987;19.472;-99.276;2023-07-31T06:05:54;2.17;;;0.70;;
13832;SDS011;6987;19.472;-99.276;2023-07-31T06:08:24;2.70;;;0.73;;
13832;SDS011;6987;19.472;-99.276;2023-07-31T06:10:52;0.60;;;0.60;;
13832;SDS011;6987;19.472;-99.276;2023-07-31T06:13:21;0.57;;;0.50;;
13832;SDS011;6987;19.472;-99.276;2023-07-31T06:15:51;0.65;;;0.65;;
13832;SDS011;6987;19.472;-99.276;2023-07-31T06:18:22;1.40;;;0.50;;
13832;SDS011;6987;19.472;-99.276;2023-07-31T06:20:51;0.60;;;0.60;;
13832;SDS011;6987;19.472;-99.276;2023-07-31T06:23:20;0.85;;;0.40;;
13832;SDS011;6987;19.472;-99.276;2023-07-31T06:25:49;1.42;;;0.70;;
13832;SDS011;6987;19.472;-99.276;2023-07-31T06:28:19;0.63;;;0.63;;
13832;SDS011;6987;19.472;-99.276;2023-07-31T06:30:48;0.55;;;0.55;;
13832;SDS011;6987;19.472;-99.276;2023-07-31T06:33:16;1.98;;;0.60;;
13832;SDS011;6987;19.472;-99.276;2023-07-31T06:35:47;0.47;;;0.47;;
13832;SDS011;6987;19.472;-99.276;2023-07-31T06:38:16;2.75;;;0.43;;
13832;SDS011;6987;19.472;-99.276;2023-07-31T06:40:44;0.50;;;0.50;;
13832;SDS011;6987;19.472;-99.276;2023-07-31T06:43:14;0.70;;;0.60;;
13832;SDS011;6987;19.472;-99.276;2023-07-31T06:45:43;0.68;;;0.68;;
13832;SDS011;6987;19.472;-99.276;2023-07-31T06:48:12;0.43;;;0.43;;
13832;SDS011;6987;19.472;-99.276;2023-07-31T06:50:41;0.73;;;0.70;;
13832;SDS011;6987;19.472;-99.276;2023-07-31T06:53:12;0.50;;;0.50;;
13832;SDS011;6987;19.472;-99.276;2023-07-31T06:55:41;0.80;;;0.40;;
13832;SDS011;6987;19.472;-99.276;2023-07-31T06:58:10;0.50;;;0.50;;
13832;SDS011;6987;19.472;-99.276;2023-07-31T07:00:39;2.40;;;0.60;;
13832;SDS011;6987;19.472;-99.276;2023-07-31T07:03:08;0.40;;;0.40;;
13832;SDS011;6987;19.472;-99.276;2023-07-31T07:05:37;0.47;;;0.47;;
13832;SDS011;6987;19.472;-99.276;2023-07-31T07:08:05;0.45;;;0.45;;
13832;SDS011;6987;19.472;-99.276;2023-07-31T07:10:36;0.68;;;0.68;;
13832;SDS011;6987;19.472;-99.276;2023-07-31T07:13:06;0.55;;;0.47;;
13832;SDS011;6987;19.472;-99.276;2023-07-31T07:15:35;0.35;;;0.30;;
13832;SDS011;6987;19.472;-99.276;2023-07-31T07:18:04;0.70;;;0.70;;
13832;SDS011;6987;19.472;-99.276;2023-07-31T07:20:33;0.30;;;0.30;;
13832;SDS011;6987;19.472;-99.276;2023-07-31T07:23:02;2.25;;;0.57;;
13832;SDS011;6987;19.472;-99.276;2023-07-31T07:25:31;0.50;;;0.50;;
13832;SDS011;6987;19.472;-99.276;2023-07-31T07:28:01;1.75;;;0.47;;
13832;SDS011;6987;19.472;-99.276;2023-07-31T07:30:30;0.70;;;0.70;;
13832;SDS011;6987;19.472;-99.276;2023-07-31T07:32:59;0.80;;;0.50;;
13832;SDS011;6987;19.472;-99.276;2023-07-31T07:35:28;0.50;;;0.50;;
13832;SDS011;6987;19.472;-99.276;2023-07-31T07:37:57;1.73;;;0.50;;
13832;SDS011;6987;19.472;-99.276;2023-07-31T07:40:26;1.35;;;0.52;;
13832;SDS011;6987;19.472;-99.276;2023-07-31T07:42:55;0.52;;;0.45;;
13832;SDS011;6987;19.472;-99.276;2023-07-31T07:45:27;0.40;;;0.40;;
13832;SDS011;6987;19.472;-99.276;2023-07-31T07:47:56;0.55;;;0.30;;
13832;SDS011;6987;19.472;-99.276;2023-07-31T07:50:25;0.30;;;0.30;;
13832;SDS011;6987;19.472;-99.276;2023-07-31T07:52:54;0.45;;;0.40;;
13832;SDS011;6987;19.472;-99.276;2023-07-31T07:55:23;0.68;;;0.52;;
13832;SDS011;6987;19.472;-99.276;2023-07-31T07:57:53;0.68;;;0.40;;
13832;SDS011;6987;19.472;-99.276;2023-07-31T08:00:21;2.00;;;0.65;;
13832;SDS011;6987;19.472;-99.276;2023-07-31T08:02:52;0.40;;;0.40;;
13832;SDS011;6987;19.472;-99.276;2023-07-31T08:05:23;0.40;;;0.40;;
13832;SDS011;6987;19.472;-99.276;2023-07-31T08:07:53;0.47;;;0.45;;
13832;SDS011;6987;19.472;-99.276;2023-07-31T08:10:21;0.68;;;0.63;;
13832;SDS011;6987;19.472;-99.276;2023-07-31T08:12:50;1.23;;;0.60;;
13832;SDS011;6987;19.472;-99.276;2023-07-31T08:15:19;2.65;;;0.55;;
13832;SDS011;6987;19.472;-99.276;2023-07-31T08:17:48;1.25;;;0.55;;
13832;SDS011;6987;19.472;-99.276;2023-07-31T08:20:19;0.90;;;0.60;;
13832;SDS011;6987;19.472;-99.276;2023-07-31T08:22:48;0.43;;;0.43;;
13832;SDS011;6987;19.472;-99.276;2023-07-31T08:25:18;0.52;;;0.40;;
13832;SDS011;6987;19.472;-99.276;2023-07-31T08:27:48;1.20;;;0.60;;
13832;SDS011;6987;19.472;-99.276;2023-07-31T08:30:18;1.05;;;0.77;;
13832;SDS011;6987;19.472;-99.276;2023-07-31T08:32:47;2.08;;;0.60;;
13832;SDS011;6987;19.472;-99.276;2023-07-31T08:35:16;1.95;;;0.80;;
13832;SDS011;6987;19.472;-99.276;2023-07-31T08:37:47;1.33;;;0.80;;
13832;SDS011;6987;19.472;-99.276;2023-07-31T08:40:16;0.63;;;0.63;;
13832;SDS011;6987;19.472;-99.276;2023-07-31T08:42:47;2.08;;;0.80;;
13832;SDS011;6987;19.472;-99.276;2023-07-31T08:45:18;0.80;;;0.80;;
13832;SDS011;6987;19.472;-99.276;2023-07-31T08:47:47;0.60;;;0.60;;
13832;SDS011;6987;19.472;-99.276;2023-07-31T08:50:17;1.10;;;0.98;;
13832;SDS011;6987;19.472;-99.276;2023-07-31T08:52:49;0.60;;;0.60;;
13832;SDS011;6987;19.472;-99.276;2023-07-31T08:55:18;0.80;;;0.80;;
13832;SDS011;6987;19.472;-99.276;2023-07-31T08:57:50;1.02;;;0.80;;
13832;SDS011;6987;19.472;-99.276;2023-07-31T09:00:19;0.70;;;0.70;;
13832;SDS011;6987;19.472;-99.276;2023-07-31T09:02:51;0.77;;;0.77;;
13832;SDS011;6987;19.472;-99.276;2023-07-31T09:05:22;0.85;;;0.75;;
13832;SDS011;6987;19.472;-99.276;2023-07-31T09:07:53;0.70;;;0.70;;
13832;SDS011;6987;19.472;-99.276;2023-07-31T09:10:24;1.35;;;0.80;;
13832;SDS011;6987;19.472;-99.276;2023-07-31T09:12:53;1.45;;;0.73;;
13832;SDS011;6987;19.472;-99.276;2023-07-31T09:15:22;1.42;;;0.95;;
13832;SDS011;6987;19.472;-99.276;2023-07-31T09:17:58;0.95;;;0.70;;
13832;SDS011;6987;19.472;-99.276;2023-07-31T09:20:28;0.80;;;0.77;;
13832;SDS011;6987;19.472;-99.276;2023-07-31T09:22:59;0.60;;;0.60;;
13832;SDS011;6987;19.472;-99.276;2023-07-31T09:25:34;0.93;;;0.90;;
13832;SDS011;6987;19.472;-99.276;2023-07-31T09:28:04;0.57;;;0.57;;
13832;SDS011;6987;19.472;-99.276;2023-07-31T09:30:44;0.80;;;0.80;;
13832;SDS011;6987;19.472;-99.276;2023-07-31T09:33:13;3.40;;;0.75;;
13832;SDS011;6987;19.472;-99.276;2023-07-31T09:35:43;0.60;;;0.60;;
13832;SDS011;6987;19.472;-99.276;2023-07-31T09:38:15;1.08;;;0.95;;
13832;SDS011;6987;19.472;-99.276;2023-07-31T09:40:45;0.70;;;0.70;;
13832;SDS011;6987;19.472;-99.276;2023-07-31T09:43:16;0.82;;;0.82;;
13832;SDS011;6987;19.472;-99.276;2023-07-31T09:45:46;0.82;;;0.65;;
13832;SDS011;6987;19.472;-99.276;2023-07-31T09:48:16;0.98;;;0.73;;
13832;SDS011;6987;19.472;-99.276;2023-07-31T09:50:45;1.83;;;0.73;;
13832;SDS011;6987;19.472;-99.276;2023-07-31T09:53:16;0.88;;;0.88;;
13832;SDS011;6987;19.472;-99.276;2023-07-31T09:55:45;3.80;;;1.10;;
13832;SDS011;6987;19.472;-99.276;2023-07-31T09:58:14;0.65;;;0.65;;
13832;SDS011;6987;19.472;-99.276;2023-07-31T10:00:43;2.65;;;1.17;;
13832;SDS011;6987;19.472;-99.276;2023-07-31T10:03:13;1.17;;;1.17;;
13832;SDS011;6987;19.472;-99.276;2023-07-31T10:05:45;1.35;;;1.02;;
13832;SDS011;6987;19.472;-99.276;2023-07-31T10:08:18;1.27;;;1.23;;
13832;SDS011;6987;19.472;-99.276;2023-07-31T10:10:49;2.65;;;1.00;;
13832;SDS011;6987;19.472;-99.276;2023-07-31T10:13:18;1.50;;;1.50;;
13832;SDS011;6987;19.472;-99.276;2023-07-31T10:15:48;1.73;;;1.50;;
13832;SDS011;6987;19.472;-99.276;2023-07-31T10:18:17;1.60;;;1.48;;
13832;SDS011;6987;19.472;-99.276;2023-07-31T10:20:46;1.65;;;1.55;;
13832;SDS011;6987;19.472;-99.276;2023-07-31T10:23:17;1.40;;;1.40;;
13832;SDS011;6987;19.472;-99.276;2023-07-31T10:25:46;1.52;;;1.50;;
13832;SDS011;6987;19.472;-99.276;2023-07-31T10:28:16;2.03;;;1.90;;
13832;SDS011;6987;19.472;-99.276;2023-07-31T10:30:45;1.58;;;1.48;;
13832;SDS011;6987;19.472;-99.276;2023-07-31T10:33:13;1.33;;;1.27;;
13832;SDS011;6987;19.472;-99.276;2023-07-31T10:35:43;1.75;;;1.65;;
13832;SDS011;6987;19.472;-99.276;2023-07-31T10:38:12;2.50;;;1.33;;
13832;SDS011;6987;19.472;-99.276;2023-07-31T10:40:43;1.73;;;1.55;;
13832;SDS011;6987;19.472;-99.276;2023-07-31T10:43:23;1.83;;;1.73;;
13832;SDS011;6987;19.472;-99.276;2023-07-31T10:45:53;1.83;;;1.73;;
13832;SDS011;6987;19.472;-99.276;2023-07-31T10:48:23;2.20;;;2.10;;
13832;SDS011;6987;19.472;-99.276;2023-07-31T10:50:54;2.22;;;2.13;;
13832;SDS011;6987;19.472;-99.276;2023-07-31T10:53:24;2.08;;;1.98;;
13832;SDS011;6987;19.472;-99.276;2023-07-31T10:55:57;1.98;;;1.80;;
13832;SDS011;6987;19.472;-99.276;2023-07-31T10:58:26;5.35;;;2.08;;
13832;SDS011;6987;19.472;-99.276;2023-07-31T11:00:57;2.53;;;2.33;;
13832;SDS011;6987;19.472;-99.276;2023-07-31T11:03:29;2.38;;;2.00;;
13832;SDS011;6987;19.472;-99.276;2023-07-31T11:06:09;1.83;;;1.73;;
13832;SDS011;6987;19.472;-99.276;2023-07-31T11:08:41;1.90;;;1.80;;
13832;SDS011;6987;19.472;-99.276;2023-07-31T11:11:13;3.00;;;1.85;;
13832;SDS011;6987;19.472;-99.276;2023-07-31T11:13:43;1.98;;;1.88;;
13832;SDS011;6987;19.472;-99.276;2023-07-31T11:16:12;2.30;;;1.90;;
13832;SDS011;6987;19.472;-99.276;2023-07-31T11:18:44;2.30;;;2.00;;
13832;SDS011;6987;19.472;-99.276;2023-07-31T11:21:14;1.98;;;1.88;;
13832;SDS011;6987;19.472;-99.276;2023-07-31T11:23:45;1.98;;;1.88;;
13832;SDS011;6987;19.472;-99.276;2023-07-31T11:26:16;2.08;;;1.98;;
13832;SDS011;6987;19.472;-99.276;2023-07-31T11:28:46;2.20;;;2.10;;
13832;SDS011;6987;19.472;-99.276;2023-07-31T11:31:15;2.17;;;2.00;;
13832;SDS011;6987;19.472;-99.276;2023-07-31T11:33:45;4.80;;;2.22;;
13832;SDS011;6987;19.472;-99.276;2023-07-31T11:36:14;5.95;;;1.80;;
13832;SDS011;6987;19.472;-99.276;2023-07-31T11:38:44;1.75;;;1.75;;
13832;SDS011;6987;19.472;-99.276;2023-07-31T11:41:13;2.03;;;1.92;;
13832;SDS011;6987;19.472;-99.276;2023-07-31T11:43:44;2.13;;;1.88;;
13832;SDS011;6987;19.472;-99.276;2023-07-31T11:46:14;1.50;;;1.40;;
13832;SDS011;6987;19.472;-99.276;2023-07-31T11:48:43;1.90;;;1.80;;
13832;SDS011;6987;19.472;-99.276;2023-07-31T11:51:12;4.07;;;1.90;;
13832;SDS011;6987;19.472;-99.276;2023-07-31T11:53:42;4.53;;;1.83;;
13832;SDS011;6987;19.472;-99.276;2023-07-31T11:56:13;6.32;;;1.80;;
13832;SDS011;6987;19.472;-99.276;2023-07-31T11:58:44;2.00;;;1.80;;
13832;SDS011;6987;19.472;-99.276;2023-07-31T12:01:14;1.50;;;1.40;;
13832;SDS011;6987;19.472;-99.276;2023-07-31T12:03:44;1.50;;;1.40;;
13832;SDS011;6987;19.472;-99.276;2023-07-31T12:06:14;1.80;;;1.70;;
13832;SDS011;6987;19.472;-99.276;2023-07-31T12:08:43;1.60;;;1.60;;
13832;SDS011;6987;19.472;-99.276;2023-07-31T12:11:12;1.88;;;1.77;;
13832;SDS011;6987;19.472;-99.276;2023-07-31T12:13:41;1.80;;;1.70;;
13832;SDS011;6987;19.472;-99.276;2023-07-31T12:16:12;1.50;;;1.48;;
13832;SDS011;6987;19.472;-99.276;2023-07-31T12:18:41;3.25;;;2.03;;
13832;SDS011;6987;19.472;-99.276;2023-07-31T12:21:10;1.60;;;1.60;;
13832;SDS011;6987;19.472;-99.276;2023-07-31T12:23:39;1.52;;;1.42;;
13832;SDS011;6987;19.472;-99.276;2023-07-31T12:26:08;1.40;;;1.35;;
13832;SDS011;6987;19.472;-99.276;2023-07-31T12:28:38;2.00;;;1.80;;
13832;SDS011;6987;19.472;-99.276;2023-07-31T12:31:09;1.50;;;1.50;;
13832;SDS011;6987;19.472;-99.276;2023-07-31T12:33:41;4.72;;;2.00;;
13832;SDS011;6987;19.472;-99.276;2023-07-31T12:36:10;4.75;;;1.63;;
13832;SDS011;6987;19.472;-99.276;2023-07-31T12:38:40;1.60;;;1.60;;
13832;SDS011;6987;19.472;-99.276;2023-07-31T12:41:09;3.22;;;1.60;;
13832;SDS011;6987;19.472;-99.276;2023-07-31T12:43:38;1.95;;;1.85;;
13832;SDS011;6987;19.472;-99.276;2023-07-31T12:46:07;2.03;;;1.67;;
13832;SDS011;6987;19.472;-99.276;2023-07-31T12:48:37;1.73;;;1.60;;
13832;SDS011;6987;19.472;-99.276;2023-07-31T12:51:08;2.05;;;1.88;;
13832;SDS011;6987;19.472;-99.276;2023-07-31T12:53:37;4.00;;;1.55;;
13832;SDS011;6987;19.472;-99.276;2023-07-31T12:56:06;1.85;;;1.75;;
13832;SDS011;6987;19.472;-99.276;2023-07-31T12:58:35;4.00;;;2.10;;
13832;SDS011;6987;19.472;-99.276;2023-07-31T13:01:04;1.80;;;1.70;;
13832;SDS011;6987;19.472;-99.276;2023-07-31T13:03:33;1.80;;;1.70;;
13832;SDS011;6987;19.472;-99.276;2023-07-31T13:06:01;3.42;;;1.73;;
13832;SDS011;6987;19.472;-99.276;2023-07-31T13:08:33;1.88;;;1.77;;
13832;SDS011;6987;19.472;-99.276;2023-07-31T13:11:02;1.75;;;1.65;;
13832;SDS011;6987;19.472;-99.276;2023-07-31T13:13:31;3.67;;;1.50;;
13832;SDS011;6987;19.472;-99.276;2023-07-31T13:16:00;1.63;;;1.52;;
13832;SDS011;6987;19.472;-99.276;2023-07-31T13:18:29;1.70;;;1.60;;
13832;SDS011;6987;19.472;-99.276;2023-07-31T13:20:58;1.65;;;1.55;;
13832;SDS011;6987;19.472;-99.276;2023-07-31T13:23:27;1.55;;;1.52;;
13832;SDS011;6987;19.472;-99.276;2023-07-31T13:25:57;2.00;;;1.90;;
13832;SDS011;6987;19.472;-99.276;2023-07-31T13:28:26;3.70;;;1.80;;
13832;SDS011;6987;19.472;-99.276;2023-07-31T13:30:55;2.22;;;1.85;;
13832;SDS011;6987;19.472;-99.276;2023-07-31T13:33:24;3.45;;;2.65;;
13832;SDS011;6987;19.472;-99.276;2023-07-31T13:35:53;2.20;;;2.00;;
13832;SDS011;6987;19.472;-99.276;2023-07-31T13:38:22;2.72;;;2.50;;
13832;SDS011;6987;19.472;-99.276;2023-07-31T13:40:51;4.25;;;3.05;;
13832;SDS011;6987;19.472;-99.276;2023-07-31T13:43:25;2.70;;;2.50;;
13832;SDS011;6987;19.472;-99.276;2023-07-31T13:45:54;3.65;;;3.38;;
13832;SDS011;6987;19.472;-99.276;2023-07-31T13:48:29;3.45;;;3.15;;
13832;SDS011;6987;19.472;-99.276;2023-07-31T13:50:58;3.13;;;2.88;;
13832;SDS011;6987;19.472;-99.276;2023-07-31T13:53:27;3.60;;;3.30;;
13832;SDS011;6987;19.472;-99.276;2023-07-31T13:55:56;3.90;;;3.60;;
13832;SDS011;6987;19.472;-99.276;2023-07-31T13:58:27;3.05;;;2.72;;
13832;SDS011;6987;19.472;-99.276;2023-07-31T14:00:56;3.03;;;2.75;;
13832;SDS011;6987;19.472;-99.276;2023-07-31T14:03:25;4.82;;;2.55;;
13832;SDS011;6987;19.472;-99.276;2023-07-31T14:05:54;4.30;;;2.70;;
13832;SDS011;6987;19.472;-99.276;2023-07-31T14:08:24;4.82;;;2.63;;
13832;SDS011;6987;19.472;-99.276;2023-07-31T14:10:53;2.72;;;2.33;;
13832;SDS011;6987;19.472;-99.276;2023-07-31T14:13:22;3.63;;;3.25;;
13832;SDS011;6987;19.472;-99.276;2023-07-31T14:15:53;2.58;;;2.47;;
13832;SDS011;6987;19.472;-99.276;2023-07-31T14:18:22;2.47;;;2.22;;
13832;SDS011;6987;19.472;-99.276;2023-07-31T14:20:51;2.20;;;2.10;;
13832;SDS011;6987;19.472;-99.276;2023-07-31T14:23:20;2.55;;;2.35;;
13832;SDS011;6987;19.472;-99.276;2023-07-31T14:25:50;2.30;;;2.10;;
13832;SDS011;6987;19.472;-99.276;2023-07-31T14:28:19;2.42;;;2.25;;
13832;SDS011;6987;19.472;-99.276;2023-07-31T14:30:49;3.47;;;2.22;;
13832;SDS011;6987;19.472;-99.276;2023-07-31T14:33:20;1.90;;;1.80;;
13832;SDS011;6987;19.472;-99.276;2023-07-31T14:35:49;2.00;;;1.90;;
13832;SDS011;6987;19.472;-99.276;2023-07-31T14:38:18;2.38;;;2.15;;
13832;SDS011;6987;19.472;-99.276;2023-07-31T14:40:47;2.35;;;2.13;;
13832;SDS011;6987;19.472;-99.276;2023-07-31T14:43:16;2.22;;;1.90;;
13832;SDS011;6987;19.472;-99.276;2023-07-31T14:45:45;1.88;;;1.77;;
13832;SDS011;6987;19.472;-99.276;2023-07-31T14:48:15;2.50;;;2.20;;